createdAt,value
2022-08-26T00:01:57.465Z,97251.81
2022-08-26T00:04:26.307Z,97254.31
2022-08-26T00:06:56.030Z,97248.31
2022-08-26T00:09:25.069Z,97240.28
2022-08-26T00:11:54.431Z,97242.97
2022-08-26T00:14:27.174Z,97251.22
2022-08-26T00:16:57.398Z,97247.63
2022-08-26T00:19:25.420Z,97253.28
2022-08-26T00:21:53.026Z,97248.94
2022-08-26T00:24:21.861Z,97256.50
2022-08-26T00:26:50.053Z,97247.50
2022-08-26T00:29:19.794Z,97244.66
2022-08-26T00:31:49.055Z,97251.81
2022-08-26T00:34:19.377Z,97249.06
2022-08-26T00:36:51.851Z,97247.34
2022-08-26T00:39:20.553Z,97250.63
2022-08-26T00:41:48.710Z,97249.88
2022-08-26T00:44:17.125Z,97249.56
2022-08-26T00:46:53.920Z,97255.03
2022-08-26T00:49:47.792Z,97257.50
2022-08-26T00:52:20.855Z,97250.41
2022-08-26T00:55:08.018Z,97248.41
2022-08-26T00:57:37.137Z,97256.81
2022-08-26T01:00:12.728Z,97251.81
2022-08-26T01:02:40.966Z,97260.22
2022-08-26T01:05:15.328Z,97252.06
2022-08-26T01:07:42.816Z,97254.09
2022-08-26T01:10:19.336Z,97253.19
2022-08-26T01:12:52.906Z,97246.50
2022-08-26T01:15:26.580Z,97246.78
2022-08-26T01:17:59.031Z,97249.44
2022-08-26T01:20:52.179Z,97244.28
2022-08-26T01:23:40.425Z,97248.13
2022-08-26T01:26:35.016Z,97242.59
2022-08-26T01:29:05.849Z,97233.63
2022-08-26T01:31:39.085Z,97244.66
2022-08-26T01:34:29.549Z,97240.19
2022-08-26T01:37:16.088Z,97241.31
2022-08-26T01:39:48.809Z,97244.75
2022-08-26T01:42:19.044Z,97237.19
2022-08-26T01:45:19.945Z,97248.22
2022-08-26T01:47:56.934Z,97240.50
2022-08-26T01:50:32.778Z,97244.16
2022-08-26T01:53:06.637Z,97239.19
2022-08-26T01:55:36.738Z,97238.63
2022-08-26T01:58:20.976Z,97234.66
2022-08-26T02:00:48.843Z,97224.75
2022-08-26T02:03:21.650Z,97223.31
2022-08-26T02:05:53.915Z,97221.44
2022-08-26T02:08:42.118Z,97223.00
2022-08-26T02:11:11.141Z,97222.28
2022-08-26T02:13:46.219Z,97220.75
2022-08-26T02:16:20.167Z,97230.88
2022-08-26T02:18:48.964Z,97218.41
2022-08-26T02:21:20.541Z,97217.31
2022-08-26T02:23:47.940Z,97221.66
2022-08-26T02:26:21.897Z,97218.22
2022-08-26T02:28:51.764Z,97222.19
2022-08-26T02:31:19.975Z,97224.41
2022-08-26T02:33:48.280Z,97228.97
2022-08-26T02:36:25.102Z,97221.59
2022-08-26T02:38:56.403Z,97218.31
2022-08-26T02:41:24.038Z,97218.66
2022-08-26T02:43:52.108Z,97220.06
2022-08-26T02:46:27.840Z,97220.88
2022-08-26T02:48:58.270Z,97218.19
2022-08-26T02:51:25.735Z,97224.97
2022-08-26T02:53:53.341Z,97223.25
2022-08-26T02:56:20.649Z,97218.06
2022-08-26T02:58:47.940Z,97222.34
2022-08-26T03:01:30.015Z,97226.41
2022-08-26T03:03:58.857Z,97219.81
2022-08-26T03:06:26.155Z,97219.38
2022-08-26T03:08:54.018Z,97217.63
2022-08-26T03:11:21.821Z,97209.94
2022-08-26T03:13:49.348Z,97213.22
2022-08-26T03:16:18.677Z,97210.41
2022-08-26T03:18:47.026Z,97210.72
2022-08-26T03:21:21.052Z,97207.25
2022-08-26T03:23:48.615Z,97209.03
2022-08-26T03:26:16.906Z,97204.00
2022-08-26T03:29:03.045Z,97204.00
2022-08-26T03:31:30.876Z,97203.50
2022-08-26T03:33:59.547Z,97199.91
2022-08-26T03:36:27.304Z,97201.66
2022-08-26T03:38:54.660Z,97198.97
2022-08-26T03:41:22.293Z,97208.41
2022-08-26T03:43:51.046Z,97206.84
2022-08-26T03:46:20.673Z,97206.38
2022-08-26T03:48:48.471Z,97207.34
2022-08-26T03:51:20.249Z,97207.84
2022-08-26T03:53:48.532Z,97210.97
2022-08-26T03:56:15.873Z,97205.63
2022-08-26T03:58:44.661Z,97206.09
2022-08-26T04:01:16.238Z,97200.59
2022-08-26T04:04:00.051Z,97202.28
2022-08-26T04:07:00.826Z,97207.19
2022-08-26T04:09:28.586Z,97201.50
2022-08-26T04:11:58.719Z,97209.19
2022-08-26T04:14:28.316Z,97205.88
2022-08-26T04:16:56.499Z,97199.22
2022-08-26T04:19:26.092Z,97199.66
2022-08-26T04:21:54.109Z,97199.66
2022-08-26T04:24:24.658Z,97202.91
2022-08-26T04:26:52.037Z,97200.78
2022-08-26T04:29:24.584Z,97199.75
2022-08-26T04:31:55.435Z,97201.50
2022-08-26T04:34:27.240Z,97195.88
2022-08-26T04:36:58.033Z,97200.44
2022-08-26T04:39:25.753Z,97198.38
2022-08-26T04:41:55.961Z,97207.81
2022-08-26T04:44:28.381Z,97202.84
2022-08-26T04:46:56.165Z,97196.72
2022-08-26T04:49:23.806Z,97202.06
2022-08-26T04:51:53.832Z,97195.59
2022-08-26T04:54:22.165Z,97193.16
2022-08-26T04:56:50.806Z,97196.94
2022-08-26T04:59:18.693Z,97195.41
2022-08-26T05:01:49.344Z,97198.41
2022-08-26T05:04:20.279Z,97198.78
2022-08-26T05:06:50.969Z,97197.53
2022-08-26T05:09:19.665Z,97200.50
2022-08-26T05:11:52.407Z,97204.44
2022-08-26T05:14:23.391Z,97206.16
2022-08-26T05:16:52.044Z,97203.66
2022-08-26T05:19:19.812Z,97203.56
2022-08-26T05:21:49.449Z,97210.91
2022-08-26T05:24:18.033Z,97210.84
2022-08-26T05:26:47.031Z,97207.09
2022-08-26T05:29:16.814Z,97203.66
2022-08-26T05:31:44.466Z,97211.53
2022-08-26T05:34:12.741Z,97202.22
2022-08-26T05:36:40.248Z,97201.28
2022-08-26T05:39:10.422Z,97199.47
2022-08-26T05:41:41.176Z,97201.19
2022-08-26T05:44:12.802Z,97206.66
2022-08-26T05:46:44.840Z,97208.69
2022-08-26T05:49:14.869Z,97206.50
2022-08-26T05:51:47.704Z,97210.09
2022-08-26T05:54:21.866Z,97206.03
2022-08-26T05:56:53.309Z,97218.38
2022-08-26T05:59:21.376Z,97214.13
2022-08-26T06:01:53.542Z,97223.09
2022-08-26T06:04:21.918Z,97222.31
2022-08-26T06:06:49.261Z,97223.41
2022-08-26T06:09:18.632Z,97225.34
2022-08-26T06:11:46.225Z,97223.66
2022-08-26T06:14:13.572Z,97223.53
2022-08-26T06:16:45.128Z,97225.75
2022-08-26T06:19:15.722Z,97219.56
2022-08-26T06:21:54.108Z,97220.94
2022-08-26T06:24:40.932Z,97221.09
2022-08-26T06:27:13.476Z,97216.00
2022-08-26T06:29:41.915Z,97217.13
2022-08-26T06:32:09.238Z,97215.28
2022-08-26T06:34:36.797Z,97223.72
2022-08-26T06:37:06.265Z,97224.22
2022-08-26T06:39:34.144Z,97223.53
2022-08-26T06:42:03.083Z,97231.63
2022-08-26T06:44:34.617Z,97218.03
2022-08-26T06:47:02.013Z,97225.31
2022-08-26T06:49:29.287Z,97228.13
2022-08-26T06:52:00.116Z,97224.94
2022-08-26T06:54:31.808Z,97225.38
2022-08-26T06:56:59.781Z,97226.97
2022-08-26T06:59:27.324Z,97224.16
2022-08-26T07:01:55.094Z,97220.78
2022-08-26T07:04:24.669Z,97224.09
2022-08-26T07:06:53.531Z,97222.56
2022-08-26T07:09:23.814Z,97226.97
2022-08-26T07:11:52.734Z,97223.66
2022-08-26T07:14:21.895Z,97221.44
2022-08-26T07:16:52.595Z,97227.75
2022-08-26T07:19:30.545Z,97222.72
2022-08-26T07:22:05.873Z,97225.44
2022-08-26T07:24:36.830Z,97221.63
2022-08-26T07:27:09.562Z,97225.19
2022-08-26T07:29:39.513Z,97219.47
2022-08-26T07:32:08.463Z,97215.53
2022-08-26T07:34:38.627Z,97221.09
2022-08-26T07:37:08.923Z,97215.44
2022-08-26T07:39:37.302Z,97221.31
2022-08-26T07:42:07.518Z,97211.31
2022-08-26T07:44:38.263Z,97215.69
2022-08-26T07:47:10.523Z,97215.47
2022-08-26T07:49:55.507Z,97210.56
2022-08-26T07:52:26.782Z,97215.31
2022-08-26T07:54:59.823Z,97208.94
2022-08-26T07:57:28.202Z,97213.44
2022-08-26T07:59:56.678Z,97212.56
2022-08-26T08:02:26.628Z,97211.63
2022-08-26T08:04:54.953Z,97210.38
2022-08-26T08:07:38.562Z,97207.66
2022-08-26T08:10:13.819Z,97206.56
2022-08-26T08:12:42.207Z,97208.97
2022-08-26T08:15:13.437Z,97204.53
2022-08-26T08:17:43.610Z,97198.56
2022-08-26T08:20:12.744Z,97190.06
2022-08-26T08:22:40.473Z,97193.63
2022-08-26T08:25:08.357Z,97202.72
2022-08-26T08:27:40.875Z,97194.22
2022-08-26T08:30:10.009Z,97195.09
2022-08-26T08:32:43.758Z,97200.41
2022-08-26T08:35:14.532Z,97193.47
2022-08-26T08:37:43.835Z,97199.69
2022-08-26T08:40:17.438Z,97186.91
2022-08-26T08:43:03.671Z,97187.94
2022-08-26T08:45:47.081Z,97182.56
2022-08-26T08:48:35.677Z,97176.47
2022-08-26T08:51:23.591Z,97176.50
2022-08-26T08:53:54.722Z,97186.16
2022-08-26T08:56:39.024Z,97177.34
2022-08-26T08:59:27.348Z,97177.78
2022-08-26T09:02:20.800Z,97171.78
2022-08-26T09:05:22.148Z,97170.03
2022-08-26T09:07:57.794Z,97164.63
2022-08-26T09:10:40.747Z,97167.38
2022-08-26T09:13:16.865Z,97174.50
2022-08-26T09:16:20.391Z,97167.84
2022-08-26T09:19:10.896Z,97166.56
2022-08-26T09:21:38.750Z,97173.09
2022-08-26T09:24:07.634Z,97174.19
2022-08-26T09:26:48.100Z,97180.28
2022-08-26T09:29:27.231Z,97176.00
2022-08-26T09:32:24.783Z,97180.19
2022-08-26T09:35:01.320Z,97173.94
2022-08-26T09:37:43.839Z,97179.47
2022-08-26T09:40:27.067Z,97175.44
2022-08-26T09:43:10.738Z,97166.94
2022-08-26T09:45:41.541Z,97168.06
2022-08-26T09:48:36.370Z,97159.19
2022-08-26T09:51:42.545Z,97160.53
2022-08-26T09:54:30.325Z,97155.34
2022-08-26T09:57:19.559Z,97158.91
2022-08-26T09:59:49.404Z,97157.19
2022-08-26T10:02:33.999Z,97152.41
2022-08-26T10:05:09.537Z,97160.06
2022-08-26T10:07:51.103Z,97143.00
2022-08-26T10:10:41.157Z,97153.50
2022-08-26T10:13:32.172Z,97140.91
2022-08-26T10:16:11.677Z,97141.75
2022-08-26T10:18:45.667Z,97146.34
2022-08-26T10:21:45.597Z,97143.50
2022-08-26T10:24:20.822Z,97151.88
2022-08-26T10:27:06.027Z,97142.03
2022-08-26T10:29:48.514Z,97137.78
2022-08-26T10:32:28.203Z,97133.81
2022-08-26T10:34:55.619Z,97136.59
2022-08-26T10:37:31.220Z,97130.78
2022-08-26T10:40:18.321Z,97133.75
2022-08-26T10:43:01.701Z,97128.25
2022-08-26T10:45:49.936Z,97127.69
2022-08-26T10:48:35.479Z,97120.31
2022-08-26T10:51:04.530Z,97129.66
2022-08-26T10:53:55.893Z,97124.97
2022-08-26T10:56:48.490Z,97117.50
2022-08-26T10:59:21.268Z,97120.41
2022-08-26T11:02:22.757Z,97107.00
2022-08-26T11:05:03.052Z,97103.28
2022-08-26T11:07:41.008Z,97092.59
2022-08-26T11:10:19.253Z,97103.56
2022-08-26T11:13:07.058Z,97098.91
2022-08-26T11:15:40.180Z,97096.94
2022-08-26T11:18:11.332Z,97090.66
2022-08-26T11:20:47.105Z,97085.56
2022-08-26T11:23:20.759Z,97081.44
2022-08-26T11:26:10.294Z,97079.19
2022-08-26T11:28:50.391Z,97074.97
2022-08-26T11:31:27.155Z,97072.75
2022-08-26T11:33:58.042Z,97068.78
2022-08-26T11:36:56.300Z,97068.19
2022-08-26T11:39:54.960Z,97069.47
2022-08-26T11:42:35.072Z,97073.19
2022-08-26T11:45:37.651Z,97074.19
2022-08-26T11:48:29.104Z,97070.34
2022-08-26T11:51:13.431Z,97072.75
2022-08-26T11:53:47.192Z,97069.22
2022-08-26T11:56:31.667Z,97081.31
2022-08-26T11:59:03.980Z,97076.84
2022-08-26T12:01:39.221Z,97073.63
2022-08-26T12:04:12.077Z,97071.34
2022-08-26T12:06:48.119Z,97072.84
2022-08-26T12:09:36.341Z,97068.66
2022-08-26T12:12:21.828Z,97064.19
2022-08-26T12:14:50.200Z,97069.69
2022-08-26T12:17:26.732Z,97061.56
2022-08-26T12:19:54.179Z,97059.19
2022-08-26T12:22:30.053Z,97054.97
2022-08-26T12:25:06.135Z,97056.09
2022-08-26T12:27:43.225Z,97053.00
2022-08-26T12:30:20.218Z,97048.63
2022-08-26T12:32:57.804Z,97041.66
2022-08-26T12:35:28.916Z,97046.94
2022-08-26T12:37:57.707Z,97043.56
2022-08-26T12:40:33.110Z,97045.53
2022-08-26T12:43:05.362Z,97037.66
2022-08-26T12:45:44.098Z,97025.69
2022-08-26T12:48:24.690Z,97031.78
2022-08-26T12:50:52.576Z,97023.50
2022-08-26T12:53:31.874Z,97022.97
2022-08-26T12:56:18.295Z,97022.88
2022-08-26T12:58:59.866Z,97028.41
2022-08-26T13:01:27.416Z,97024.22
2022-08-26T13:03:54.962Z,97025.34
2022-08-26T13:06:40.468Z,97014.78
2022-08-26T13:09:10.455Z,97011.03
2022-08-26T13:11:40.499Z,97009.41
2022-08-26T13:14:21.067Z,97006.72
2022-08-26T13:16:53.043Z,96996.94
2022-08-26T13:19:23.878Z,97008.13
2022-08-26T13:22:00.075Z,97008.22
2022-08-26T13:24:38.653Z,97007.25
2022-08-26T13:27:08.953Z,97002.91
2022-08-26T13:29:36.812Z,97005.13
2022-08-26T13:32:06.646Z,97004.53
2022-08-26T13:34:35.313Z,97000.47
2022-08-26T13:37:03.020Z,96993.94
2022-08-26T13:39:30.499Z,96989.75
2022-08-26T13:41:57.994Z,96990.59
2022-08-26T13:44:25.344Z,96981.75
2022-08-26T13:46:52.698Z,96991.09
2022-08-26T13:49:20.126Z,96993.41
2022-08-26T13:51:47.486Z,96994.91
2022-08-26T13:54:14.989Z,97006.38
2022-08-26T13:56:42.394Z,97005.13
2022-08-26T13:59:10.000Z,97009.94
2022-08-26T14:01:40.102Z,97001.75
2022-08-26T14:04:08.778Z,97000.31
2022-08-26T14:06:36.293Z,96998.06
2022-08-26T14:09:04.858Z,96991.41
2022-08-26T14:11:39.037Z,96998.28
2022-08-26T14:14:19.666Z,96997.53
2022-08-26T14:16:59.803Z,97002.16
2022-08-26T14:19:30.097Z,97005.09
2022-08-26T14:21:57.562Z,97000.13
2022-08-26T14:24:25.004Z,97001.56
2022-08-26T14:26:52.299Z,97004.50
2022-08-26T14:29:19.840Z,96985.97
2022-08-26T14:31:47.219Z,96995.38
2022-08-26T14:34:14.960Z,96998.31
2022-08-26T14:36:42.455Z,96992.38
2022-08-26T14:39:13.145Z,96985.31
2022-08-26T14:41:53.901Z,96988.13
2022-08-26T14:44:29.308Z,96984.22
2022-08-26T14:46:57.121Z,96986.63
2022-08-26T14:49:27.299Z,96987.81
2022-08-26T14:51:55.324Z,96986.34
2022-08-26T14:54:22.630Z,96984.03
2022-08-26T14:56:59.682Z,96980.50
2022-08-26T14:59:31.173Z,96988.34
2022-08-26T15:02:00.517Z,96978.22
2022-08-26T15:04:28.567Z,96970.47
2022-08-26T15:06:59.120Z,96969.78
2022-08-26T15:09:29.059Z,96971.50
2022-08-26T15:11:56.602Z,96973.22
2022-08-26T15:14:24.517Z,96969.72
2022-08-26T15:16:56.004Z,96957.75
2022-08-26T15:19:26.410Z,96956.66
2022-08-26T15:21:53.972Z,96949.34
2022-08-26T15:24:25.994Z,96940.47
2022-08-26T15:26:53.828Z,96950.53
2022-08-26T15:29:22.313Z,96946.72
2022-08-26T15:31:50.266Z,96944.78
2022-08-26T15:34:18.223Z,96946.03
2022-08-26T15:36:47.939Z,96938.59
2022-08-26T15:39:17.217Z,96943.28
2022-08-26T15:41:45.486Z,96945.97
2022-08-26T15:44:14.419Z,96948.75
2022-08-26T15:46:42.263Z,96944.56
2022-08-26T15:49:16.994Z,96952.78
2022-08-26T15:51:48.009Z,96956.34
2022-08-26T15:54:17.730Z,96945.91
2022-08-26T15:56:47.926Z,96948.72
2022-08-26T15:59:15.912Z,96953.41
2022-08-26T16:01:44.053Z,96952.72
2022-08-26T16:04:12.050Z,96947.69
2022-08-26T16:06:41.641Z,96936.84
2022-08-26T16:09:10.019Z,96934.53
2022-08-26T16:11:38.626Z,96931.44
2022-08-26T16:14:07.816Z,96932.97
2022-08-26T16:16:42.107Z,96932.22
2022-08-26T16:19:09.466Z,96920.66
2022-08-26T16:21:36.675Z,96921.47
2022-08-26T16:24:05.001Z,96917.22
2022-08-26T16:26:35.044Z,96914.91
2022-08-26T16:29:11.355Z,96911.03
2022-08-26T16:31:39.548Z,96906.38
2022-08-26T16:34:08.676Z,96902.91
2022-08-26T16:36:38.635Z,96897.50
2022-08-26T16:39:07.715Z,96901.75
2022-08-26T16:41:35.296Z,96892.84
2022-08-26T16:44:03.235Z,96893.63
2022-08-26T16:46:30.993Z,96896.72
2022-08-26T16:48:59.543Z,96898.63
2022-08-26T16:51:28.270Z,96897.84
2022-08-26T16:53:57.629Z,96892.38
2022-08-26T16:56:33.725Z,96886.50
2022-08-26T16:59:07.235Z,96893.78
2022-08-26T17:01:34.975Z,96895.66
2022-08-26T17:04:02.450Z,96888.63
2022-08-26T17:06:29.864Z,96897.84
2022-08-26T17:08:57.230Z,96891.63
2022-08-26T17:11:24.616Z,96895.03
2022-08-26T17:13:51.925Z,96887.25
2022-08-26T17:16:22.262Z,96875.97
2022-08-26T17:18:52.143Z,96877.03
2022-08-26T17:21:19.515Z,96871.88
2022-08-26T17:23:46.977Z,96872.97
2022-08-26T17:26:14.334Z,96882.22
2022-08-26T17:28:42.105Z,96880.81
2022-08-26T17:31:12.739Z,96873.88
2022-08-26T17:33:41.080Z,96871.13
2022-08-26T17:36:09.586Z,96877.59
2022-08-26T17:38:38.855Z,96884.47
2022-08-26T17:41:12.376Z,96880.06
2022-08-26T17:43:40.802Z,96878.81
2022-08-26T17:46:11.401Z,96878.75
2022-08-26T17:48:41.150Z,96878.22
2022-08-26T17:51:15.629Z,96873.81
2022-08-26T17:53:43.692Z,96878.38
2022-08-26T17:56:14.359Z,96881.75
2022-08-26T17:58:48.005Z,96875.94
2022-08-26T18:01:22.138Z,96876.88
2022-08-26T18:03:50.163Z,96886.22
